sensor_id;sensor_type;location;lat;lon;timestamp;temperature;humidity
26278;DHT22;14000;52.056;8.510;2023-11-21T00:00:15;8.30;99.90
26278;DHT22;14000;52.056;8.510;2023-11-21T00:02:41;8.30;99.90
26278;DHT22;14000;52.056;8.510;2023-11-21T00:05:11;8.30;99.90
26278;DHT22;14000;52.056;8.510;2023-11-21T00:07:40;8.30;99.90
26278;DHT22;14000;52.056;8.510;2023-11-21T00:10:06;8.30;99.90
26278;DHT22;14000;52.056;8.510;2023-11-21T00:12:32;8.30;99.90
26278;DHT22;14000;52.056;8.510;2023-11-21T00:14:59;8.30;99.90
26278;DHT22;14000;52.056;8.510;2023-11-21T00:17:24;8.40;99.90
26278;DHT22;14000;52.056;8.510;2023-11-21T00:19:50;8.40;99.90
26278;DHT22;14000;52.056;8.510;2023-11-21T00:22:17;8.40;99.90
26278;DHT22;14000;52.056;8.510;2023-11-21T00:24:43;8.30;99.90
26278;DHT22;14000;52.056;8.510;2023-11-21T00:27:09;8.30;99.90
26278;DHT22;14000;52.056;8.510;2023-11-21T00:29:35;8.30;99.90
26278;DHT22;14000;52.056;8.510;2023-11-21T00:32:00;8.30;99.90
26278;DHT22;14000;52.056;8.510;2023-11-21T00:34:26;8.30;99.90
26278;DHT22;14000;52.056;8.510;2023-11-21T00:36:51;8.30;99.90
26278;DHT22;14000;52.056;8.510;2023-11-21T00:39:17;8.30;99.90
26278;DHT22;14000;52.056;8.510;2023-11-21T00:41:42;8.40;99.90
26278;DHT22;14000;52.056;8.510;2023-11-21T00:44:10;8.40;99.90
26278;DHT22;14000;52.056;8.510;2023-11-21T00:46:36;8.40;99.90
26278;DHT22;14000;52.056;8.510;2023-11-21T00:49:02;8.40;99.90
26278;DHT22;14000;52.056;8.510;2023-11-21T00:51:29;8.40;99.90
26278;DHT22;14000;52.056;8.510;2023-11-21T00:53:55;8.40;99.90
26278;DHT22;14000;52.056;8.510;2023-11-21T00:56:21;8.40;99.90
26278;DHT22;14000;52.056;8.510;2023-11-21T00:58:47;8.40;99.90
26278;DHT22;14000;52.056;8.510;2023-11-21T01:01:15;8.40;99.90
26278;DHT22;14000;52.056;8.510;2023-11-21T01:03:41;8.50;99.90
26278;DHT22;14000;52.056;8.510;2023-11-21T01:06:07;8.50;99.90
26278;DHT22;14000;52.056;8.510;2023-11-21T01:08:34;8.50;99.90
26278;DHT22;14000;52.056;8.510;2023-11-21T01:10:59;8.50;99.90
26278;DHT22;14000;52.056;8.510;2023-11-21T01:13:25;8.50;99.90
26278;DHT22;14000;52.056;8.510;2023-11-21T01:15:55;8.60;99.90
26278;DHT22;14000;52.056;8.510;2023-11-21T01:18:21;8.60;99.90
26278;DHT22;14000;52.056;8.510;2023-11-21T01:20:46;8.60;99.90
26278;DHT22;14000;52.056;8.510;2023-11-21T01:23:13;8.50;99.90
26278;DHT22;14000;52.056;8.510;2023-11-21T01:25:39;8.50;99.90
26278;DHT22;14000;52.056;8.510;2023-11-21T01:28:04;8.50;99.90
26278;DHT22;14000;52.056;8.510;2023-11-21T01:30:30;8.50;99.90
26278;DHT22;14000;52.056;8.510;2023-11-21T01:32:58;8.50;99.90
26278;DHT22;14000;52.056;8.510;2023-11-21T01:35:23;8.50;99.90
26278;DHT22;14000;52.056;8.510;2023-11-21T01:37:49;8.50;99.90
26278;DHT22;14000;52.056;8.510;2023-11-21T01:40:15;8.60;99.90
26278;DHT22;14000;52.056;8.510;2023-11-21T01:42:41;8.50;99.90
26278;DHT22;14000;52.056;8.510;2023-11-21T01:45:09;8.50;99.90
26278;DHT22;14000;52.056;8.510;2023-11-21T01:47:35;8.60;99.90
26278;DHT22;14000;52.056;8.510;2023-11-21T01:50:02;8.50;99.90
26278;DHT22;14000;52.056;8.510;2023-11-21T01:52:30;8.50;99.90
26278;DHT22;14000;52.056;8.510;2023-11-21T01:54:55;8.50;99.90
26278;DHT22;14000;52.056;8.510;2023-11-21T01:57:22;8.60;99.90
26278;DHT22;14000;52.056;8.510;2023-11-21T01:59:48;8.60;99.90
26278;DHT22;14000;52.056;8.510;2023-11-21T02:02:15;8.60;99.90
26278;DHT22;14000;52.056;8.510;2023-11-21T02:04:41;8.60;99.90
26278;DHT22;14000;52.056;8.510;2023-11-21T02:07:07;8.50;99.90
26278;DHT22;14000;52.056;8.510;2023-11-21T02:09:33;8.50;99.90
26278;DHT22;14000;52.056;8.510;2023-11-21T02:12:00;8.60;99.90
26278;DHT22;14000;52.056;8.510;2023-11-21T02:14:26;8.60;99.90
26278;DHT22;14000;52.056;8.510;2023-11-21T02:16:54;8.50;99.90
26278;DHT22;14000;52.056;8.510;2023-11-21T02:19:21;8.60;99.90
26278;DHT22;14000;52.056;8.510;2023-11-21T02:21:56;8.60;99.90
26278;DHT22;14000;52.056;8.510;2023-11-21T02:24:25;8.70;99.90
26278;DHT22;14000;52.056;8.510;2023-11-21T02:26:51;8.60;99.90
26278;DHT22;14000;52.056;8.510;2023-11-21T02:29:18;8.60;99.90
26278;DHT22;14000;52.056;8.510;2023-11-21T02:31:47;8.60;99.90
26278;DHT22;14000;52.056;8.510;2023-11-21T02:34:17;8.60;99.90
26278;DHT22;14000;52.056;8.510;2023-11-21T02:36:44;8.50;99.90
26278;DHT22;14000;52.056;8.510;2023-11-21T02:39:13;8.60;99.90
26278;DHT22;14000;52.056;8.510;2023-11-21T02:41:38;8.60;99.90
26278;DHT22;14000;52.056;8.510;2023-11-21T02:44:05;8.60;99.90
26278;DHT22;14000;52.056;8.510;2023-11-21T02:46:32;8.60;99.90
26278;DHT22;14000;52.056;8.510;2023-11-21T02:49:00;8.60;99.90
26278;DHT22;14000;52.056;8.510;2023-11-21T02:51:25;8.60;99.90
26278;DHT22;14000;52.056;8.510;2023-11-21T02:53:51;8.60;99.90
26278;DHT22;14000;52.056;8.510;2023-11-21T02:56:16;8.60;99.90
26278;DHT22;14000;52.056;8.510;2023-11-21T02:58:43;8.60;99.90
26278;DHT22;14000;52.056;8.510;2023-11-21T03:01:09;8.70;99.90
26278;DHT22;14000;52.056;8.510;2023-11-21T03:03:37;8.70;99.90
26278;DHT22;14000;52.056;8.510;2023-11-21T03:06:04;8.70;99.90
26278;DHT22;14000;52.056;8.510;2023-11-21T03:08:30;8.70;99.90
26278;DHT22;14000;52.056;8.510;2023-11-21T03:10:55;8.70;99.90
26278;DHT22;14000;52.056;8.510;2023-11-21T03:13:21;8.70;99.90
26278;DHT22;14000;52.056;8.510;2023-11-21T03:15:46;8.70;99.90
26278;DHT22;14000;52.056;8.510;2023-11-21T03:18:12;8.70;99.90
26278;DHT22;14000;52.056;8.510;2023-11-21T03:20:38;8.70;99.90
26278;DHT22;14000;52.056;8.510;2023-11-21T03:23:04;8.70;99.90
26278;DHT22;14000;52.056;8.510;2023-11-21T03:25:30;8.70;99.90
26278;DHT22;14000;52.056;8.510;2023-11-21T03:27:56;8.60;99.90
26278;DHT22;14000;52.056;8.510;2023-11-21T03:30:22;8.70;99.90
26278;DHT22;14000;52.056;8.510;2023-11-21T03:32:47;8.70;99.90
26278;DHT22;14000;52.056;8.510;2023-11-21T03:35:13;8.70;99.90
26278;DHT22;14000;52.056;8.510;2023-11-21T03:37:39;8.70;99.90
26278;DHT22;14000;52.056;8.510;2023-11-21T03:40:07;8.70;99.90
26278;DHT22;14000;52.056;8.510;2023-11-21T03:42:34;8.70;99.90
26278;DHT22;14000;52.056;8.510;2023-11-21T03:45:00;8.70;99.90
26278;DHT22;14000;52.056;8.510;2023-11-21T03:47:27;8.70;99.90
26278;DHT22;14000;52.056;8.510;2023-11-21T03:49:53;8.70;99.90
26278;DHT22;14000;52.056;8.510;2023-11-21T03:52:19;8.70;99.90
26278;DHT22;14000;52.056;8.510;2023-11-21T03:54:44;8.70;99.90
26278;DHT22;14000;52.056;8.510;2023-11-21T03:57:11;8.70;99.90
26278;DHT22;14000;52.056;8.510;2023-11-21T03:59:40;8.70;99.90
26278;DHT22;14000;52.056;8.510;2023-11-21T04:02:06;8.70;99.90
26278;DHT22;14000;52.056;8.510;2023-11-21T04:04:33;8.70;99.90
26278;DHT22;14000;52.056;8.510;2023-11-21T04:06:59;8.70;99.90
26278;DHT22;14000;52.056;8.510;2023-11-21T04:09:25;8.70;99.90
26278;DHT22;14000;52.056;8.510;2023-11-21T04:11:51;8.70;99.90
26278;DHT22;14000;52.056;8.510;2023-11-21T04:14:17;8.70;99.90
26278;DHT22;14000;52.056;8.510;2023-11-21T04:16:42;8.70;99.90
26278;DHT22;14000;52.056;8.510;2023-11-21T04:19:08;8.70;99.90
26278;DHT22;14000;52.056;8.510;2023-11-21T04:21:37;8.70;99.90
26278;DHT22;14000;52.056;8.510;2023-11-21T04:24:03;8.70;99.90
26278;DHT22;14000;52.056;8.510;2023-11-21T04:26:29;8.70;99.90
26278;DHT22;14000;52.056;8.510;2023-11-21T04:28:55;8.70;99.90
26278;DHT22;14000;52.056;8.510;2023-11-21T04:31:20;8.70;99.90
26278;DHT22;14000;52.056;8.510;2023-11-21T04:33:46;8.70;99.90
26278;DHT22;14000;52.056;8.510;2023-11-21T04:36:12;8.70;99.90
26278;DHT22;14000;52.056;8.510;2023-11-21T04:38:37;8.60;99.90
26278;DHT22;14000;52.056;8.510;2023-11-21T04:41:03;8.60;99.90
26278;DHT22;14000;52.056;8.510;2023-11-21T04:43:28;8.60;99.90
26278;DHT22;14000;52.056;8.510;2023-11-21T04:45:55;8.60;99.90
26278;DHT22;14000;52.056;8.510;2023-11-21T04:48:20;8.60;99.90
26278;DHT22;14000;52.056;8.510;2023-11-21T04:50:46;8.60;99.90
26278;DHT22;14000;52.056;8.510;2023-11-21T04:53:11;8.50;99.90
26278;DHT22;14000;52.056;8.510;2023-11-21T04:55:40;8.50;99.90
26278;DHT22;14000;52.056;8.510;2023-11-21T04:58:06;8.50;99.90
26278;DHT22;14000;52.056;8.510;2023-11-21T05:00:32;8.60;99.90
26278;DHT22;14000;52.056;8.510;2023-11-21T05:02:57;8.50;99.90
26278;DHT22;14000;52.056;8.510;2023-11-21T05:05:23;8.50;99.90
26278;DHT22;14000;52.056;8.510;2023-11-21T05:07:49;8.50;99.90
26278;DHT22;14000;52.056;8.510;2023-11-21T05:10:15;8.50;99.90
26278;DHT22;14000;52.056;8.510;2023-11-21T05:12:41;8.50;99.90
26278;DHT22;14000;52.056;8.510;2023-11-21T05:15:08;8.50;99.90
26278;DHT22;14000;52.056;8.510;2023-11-21T05:17:36;8.50;99.90
26278;DHT22;14000;52.056;8.510;2023-11-21T05:20:02;8.50;99.90
26278;DHT22;14000;52.056;8.510;2023-11-21T05:22:29;8.50;99.90
26278;DHT22;14000;52.056;8.510;2023-11-21T05:24:55;8.50;99.90
26278;DHT22;14000;52.056;8.510;2023-11-21T05:27:21;8.40;99.90
26278;DHT22;14000;52.056;8.510;2023-11-21T05:29:46;8.50;99.90
26278;DHT22;14000;52.056;8.510;2023-11-21T05:32:12;8.50;99.90
26278;DHT22;14000;52.056;8.510;2023-11-21T05:34:37;8.40;99.90
26278;DHT22;14000;52.056;8.510;2023-11-21T05:37:03;8.40;99.90
26278;DHT22;14000;52.056;8.510;2023-11-21T05:39:31;8.40;99.90
26278;DHT22;14000;52.056;8.510;2023-11-21T05:41:57;8.40;99.90
26278;DHT22;14000;52.056;8.510;2023-11-21T05:44:23;8.40;99.90
26278;DHT22;14000;52.056;8.510;2023-11-21T05:46:49;8.40;99.90
26278;DHT22;14000;52.056;8.510;2023-11-21T05:49:15;8.40;99.90
26278;DHT22;14000;52.056;8.510;2023-11-21T05:51:41;8.40;99.90
26278;DHT22;14000;52.056;8.510;2023-11-21T05:54:07;8.40;99.90
26278;DHT22;14000;52.056;8.510;2023-11-21T05:56:33;8.40;99.90
26278;DHT22;14000;52.056;8.510;2023-11-21T05:58:59;8.40;99.90
26278;DHT22;14000;52.056;8.510;2023-11-21T06:01:25;8.40;99.90
26278;DHT22;14000;52.056;8.510;2023-11-21T06:03:54;8.40;99.90
26278;DHT22;14000;52.056;8.510;2023-11-21T06:06:20;8.40;99.90
26278;DHT22;14000;52.056;8.510;2023-11-21T06:08:50;8.40;99.90
26278;DHT22;14000;52.056;8.510;2023-11-21T06:11:16;8.40;99.90
26278;DHT22;14000;52.056;8.510;2023-11-21T06:13:42;8.30;99.90
26278;DHT22;14000;52.056;8.510;2023-11-21T06:16:08;8.40;99.90
26278;DHT22;14000;52.056;8.510;2023-11-21T06:18:33;8.40;99.90
26278;DHT22;14000;52.056;8.510;2023-11-21T06:21:00;8.40;99.90
26278;DHT22;14000;52.056;8.510;2023-11-21T06:23:26;8.40;99.90
26278;DHT22;14000;52.056;8.510;2023-11-21T06:25:52;8.40;99.90
26278;DHT22;14000;52.056;8.510;2023-11-21T06:28:18;8.40;99.90
26278;DHT22;14000;52.056;8.510;2023-11-21T06:30:44;8.40;99.90
26278;DHT22;14000;52.056;8.510;2023-11-21T06:33:10;8.50;99.90
26278;DHT22;14000;52.056;8.510;2023-11-21T06:35:36;8.50;99.90
26278;DHT22;14000;52.056;8.510;2023-11-21T06:38:02;8.50;99.90
26278;DHT22;14000;52.056;8.510;2023-11-21T06:40:28;8.50;99.90
26278;DHT22;14000;52.056;8.510;2023-11-21T06:42:53;8.50;99.90
26278;DHT22;14000;52.056;8.510;2023-11-21T06:45:19;8.40;99.90
26278;DHT22;14000;52.056;8.510;2023-11-21T06:47:48;8.40;99.90
26278;DHT22;14000;52.056;8.510;2023-11-21T06:50:14;8.40;99.90
26278;DHT22;14000;52.056;8.510;2023-11-21T06:52:40;8.40;99.90
26278;DHT22;14000;52.056;8.510;2023-11-21T06:55:06;8.50;99.90
26278;DHT22;14000;52.056;8.510;2023-11-21T06:57:33;8.50;99.90
26278;DHT22;14000;52.056;8.510;2023-11-21T06:59:59;8.50;99.90
26278;DHT22;14000;52.056;8.510;2023-11-21T07:02:25;8.50;99.90
26278;DHT22;14000;52.056;8.510;2023-11-21T07:04:50;8.50;99.90
26278;DHT22;14000;52.056;8.510;2023-11-21T07:07:16;8.50;99.90
26278;DHT22;14000;52.056;8.510;2023-11-21T07:09:41;8.50;99.90
26278;DHT22;14000;52.056;8.510;2023-11-21T07:12:07;8.50;99.90
26278;DHT22;14000;52.056;8.510;2023-11-21T07:14:34;8.50;99.90
26278;DHT22;14000;52.056;8.510;2023-11-21T07:16:59;8.50;99.90
26278;DHT22;14000;52.056;8.510;2023-11-21T07:19:25;8.50;99.90
26278;DHT22;14000;52.056;8.510;2023-11-21T07:21:51;8.50;99.90
26278;DHT22;14000;52.056;8.510;2023-11-21T07:24:17;8.50;99.90
26278;DHT22;14000;52.056;8.510;2023-11-21T07:26:42;8.50;99.90
26278;DHT22;14000;52.056;8.510;2023-11-21T07:29:08;8.60;99.90
26278;DHT22;14000;52.056;8.510;2023-11-21T07:31:34;8.60;99.90
26278;DHT22;14000;52.056;8.510;2023-11-21T07:34:00;8.50;99.90
26278;DHT22;14000;52.056;8.510;2023-11-21T07:36:26;8.50;99.90
26278;DHT22;14000;52.056;8.510;2023-11-21T07:38:52;8.50;99.90
26278;DHT22;14000;52.056;8.510;2023-11-21T07:41:18;8.50;99.90
26278;DHT22;14000;52.056;8.510;2023-11-21T07:43:44;8.50;99.90
26278;DHT22;14000;52.056;8.510;2023-11-21T07:46:11;8.50;99.90
26278;DHT22;14000;52.056;8.510;2023-11-21T07:48:38;8.50;99.90
26278;DHT22;14000;52.056;8.510;2023-11-21T07:51:04;8.40;99.90
26278;DHT22;14000;52.056;8.510;2023-11-21T07:53:29;8.40;99.90
26278;DHT22;14000;52.056;8.510;2023-11-21T07:56:06;8.40;99.90
26278;DHT22;14000;52.056;8.510;2023-11-21T07:58:32;8.40;99.90
26278;DHT22;14000;52.056;8.510;2023-11-21T08:01:01;8.40;99.90
26278;DHT22;14000;52.056;8.510;2023-11-21T08:03:27;8.50;99.90
26278;DHT22;14000;52.056;8.510;2023-11-21T08:05:53;8.50;99.90
26278;DHT22;14000;52.056;8.510;2023-11-21T08:08:19;8.40;99.90
26278;DHT22;14000;52.056;8.510;2023-11-21T08:10:45;8.50;99.90
26278;DHT22;14000;52.056;8.510;2023-11-21T08:13:13;8.50;99.90
26278;DHT22;14000;52.056;8.510;2023-11-21T08:15:41;8.60;99.90
26278;DHT22;14000;52.056;8.510;2023-11-21T08:18:11;8.50;99.90
26278;DHT22;14000;52.056;8.510;2023-11-21T08:20:38;8.50;99.90
26278;DHT22;14000;52.056;8.510;2023-11-21T08:23:05;8.50;99.90
26278;DHT22;14000;52.056;8.510;2023-11-21T08:25:31;8.50;99.90
26278;DHT22;14000;52.056;8.510;2023-11-21T08:27:57;8.60;99.90
26278;DHT22;14000;52.056;8.510;2023-11-21T08:30:23;8.60;99.90
26278;DHT22;14000;52.056;8.510;2023-11-21T08:32:49;8.50;99.90
26278;DHT22;14000;52.056;8.510;2023-11-21T08:35:17;8.50;99.90
26278;DHT22;14000;52.056;8.510;2023-11-21T08:37:43;8.50;99.90
26278;DHT22;14000;52.056;8.510;2023-11-21T08:40:09;8.50;99.90
26278;DHT22;14000;52.056;8.510;2023-11-21T08:42:35;8.50;99.90
26278;DHT22;14000;52.056;8.510;2023-11-21T08:45:01;8.60;99.90
26278;DHT22;14000;52.056;8.510;2023-11-21T08:47:27;8.60;99.90
26278;DHT22;14000;52.056;8.510;2023-11-21T08:49:53;8.60;99.90
26278;DHT22;14000;52.056;8.510;2023-11-21T08:52:19;8.60;99.90
26278;DHT22;14000;52.056;8.510;2023-11-21T08:54:48;8.60;99.90
26278;DHT22;14000;52.056;8.510;2023-11-21T08:57:14;8.60;99.90
26278;DHT22;14000;52.056;8.510;2023-11-21T08:59:39;8.60;99.90
26278;DHT22;14000;52.056;8.510;2023-11-21T09:02:05;8.60;99.90
26278;DHT22;14000;52.056;8.510;2023-11-21T09:04:31;8.50;99.90
26278;DHT22;14000;52.056;8.510;2023-11-21T09:06:57;8.50;99.90
26278;DHT22;14000;52.056;8.510;2023-11-21T09:09:25;8.50;99.90
26278;DHT22;14000;52.056;8.510;2023-11-21T09:11:50;8.50;99.90
26278;DHT22;14000;52.056;8.510;2023-11-21T09:14:16;8.50;99.90
26278;DHT22;14000;52.056;8.510;2023-11-21T09:16:43;8.50;99.90
26278;DHT22;14000;52.056;8.510;2023-11-21T09:19:09;8.50;99.90
26278;DHT22;14000;52.056;8.510;2023-11-21T09:21:34;8.50;99.90
26278;DHT22;14000;52.056;8.510;2023-11-21T09:24:00;8.40;99.90
26278;DHT22;14000;52.056;8.510;2023-11-21T09:26:25;8.40;99.90
26278;DHT22;14000;52.056;8.510;2023-11-21T09:28:51;8.40;99.90
26278;DHT22;14000;52.056;8.510;2023-11-21T09:31:18;8.40;99.90
26278;DHT22;14000;52.056;8.510;2023-11-21T09:33:47;8.40;99.90
26278;DHT22;14000;52.056;8.510;2023-11-21T09:36:13;8.30;99.90
26278;DHT22;14000;52.056;8.510;2023-11-21T09:38:40;8.30;99.90
26278;DHT22;14000;52.056;8.510;2023-11-21T09:41:15;8.30;99.90
26278;DHT22;14000;52.056;8.510;2023-11-21T09:43:46;8.30;99.90
26278;DHT22;14000;52.056;8.510;2023-11-21T09:46:12;8.30;99.90
26278;DHT22;14000;52.056;8.510;2023-11-21T09:48:42;8.30;99.90
26278;DHT22;14000;52.056;8.510;2023-11-21T09:51:10;8.30;99.90
26278;DHT22;14000;52.056;8.510;2023-11-21T09:53:36;8.30;99.90
26278;DHT22;14000;52.056;8.510;2023-11-21T09:56:04;8.20;99.90
26278;DHT22;14000;52.056;8.510;2023-11-21T09:58:30;8.20;99.90
26278;DHT22;14000;52.056;8.510;2023-11-21T10:00:59;8.20;99.90
26278;DHT22;14000;52.056;8.510;2023-11-21T10:03:28;8.20;99.90
26278;DHT22;14000;52.056;8.510;2023-11-21T10:05:56;8.20;99.90
26278;DHT22;14000;52.056;8.510;2023-11-21T10:08:26;8.10;99.90
26278;DHT22;14000;52.056;8.510;2023-11-21T10:10:54;8.10;99.90
26278;DHT22;14000;52.056;8.510;2023-11-21T10:13:20;8.10;99.90
26278;DHT22;14000;52.056;8.510;2023-11-21T10:15:51;8.10;99.90
26278;DHT22;14000;52.056;8.510;2023-11-21T10:18:17;8.10;99.90
26278;DHT22;14000;52.056;8.510;2023-11-21T10:20:43;8.10;99.90
26278;DHT22;14000;52.056;8.510;2023-11-21T10:23:11;8.00;99.90
26278;DHT22;14000;52.056;8.510;2023-11-21T10:25:38;8.10;99.90
26278;DHT22;14000;52.056;8.510;2023-11-21T10:28:04;8.10;99.90
26278;DHT22;14000;52.056;8.510;2023-11-21T10:30:36;8.00;99.90
26278;DHT22;14000;52.056;8.510;2023-11-21T10:33:03;8.00;99.90
26278;DHT22;14000;52.056;8.510;2023-11-21T10:35:58;7.90;99.90
26278;DHT22;14000;52.056;8.510;2023-11-21T10:38:26;7.90;99.90
26278;DHT22;14000;52.056;8.510;2023-11-21T10:40:54;8.00;99.90
26278;DHT22;14000;52.056;8.510;2023-11-21T10:43:24;8.00;99.90
26278;DHT22;14000;52.056;8.510;2023-11-21T10:45:50;8.00;99.90
26278;DHT22;14000;52.056;8.510;2023-11-21T10:48:16;7.90;99.90
26278;DHT22;14000;52.056;8.510;2023-11-21T10:50:45;7.90;99.90
26278;DHT22;14000;52.056;8.510;2023-11-21T10:53:12;7.90;99.90
26278;DHT22;14000;52.056;8.510;2023-11-21T10:55:38;7.90;99.90
26278;DHT22;14000;52.056;8.510;2023-11-21T10:58:04;7.90;99.90
26278;DHT22;14000;52.056;8.510;2023-11-21T11:00:32;7.80;99.90
26278;DHT22;14000;52.056;8.510;2023-11-21T11:02:58;7.80;99.90
26278;DHT22;14000;52.056;8.510;2023-11-21T11:05:25;7.90;99.90
26278;DHT22;14000;52.056;8.510;2023-11-21T11:08:04;7.90;99.90
26278;DHT22;14000;52.056;8.510;2023-11-21T11:10:30;7.80;99.90
26278;DHT22;14000;52.056;8.510;2023-11-21T11:12:57;7.80;99.90
26278;DHT22;14000;52.056;8.510;2023-11-21T11:15:23;7.80;99.90
26278;DHT22;14000;52.056;8.510;2023-11-21T11:17:49;7.70;99.90
26278;DHT22;14000;52.056;8.510;2023-11-21T11:20:16;7.70;99.90
26278;DHT22;14000;52.056;8.510;2023-11-21T11:28:15;7.60;99.90
26278;DHT22;14000;52.056;8.510;2023-11-21T11:36:17;7.60;99.90
26278;DHT22;14000;52.056;8.510;2023-11-21T11:38:47;7.60;99.90
26278;DHT22;14000;52.056;8.510;2023-11-21T11:41:32;7.60;99.90
26278;DHT22;14000;52.056;8.510;2023-11-21T11:44:02;7.60;99.90
26278;DHT22;14000;52.056;8.510;2023-11-21T11:46:45;7.60;99.90
26278;DHT22;14000;52.056;8.510;2023-11-21T11:49:24;7.60;99.90
26278;DHT22;14000;52.056;8.510;2023-11-21T11:54:55;7.60;99.90
26278;DHT22;14000;52.056;8.510;2023-11-21T11:57:24;7.50;99.90
26278;DHT22;14000;52.056;8.510;2023-11-21T12:00:43;7.40;99.90
26278;DHT22;14000;52.056;8.510;2023-11-21T12:03:09;7.40;99.90
26278;DHT22;14000;52.056;8.510;2023-11-21T12:05:35;7.40;99.90
26278;DHT22;14000;52.056;8.510;2023-11-21T12:08:05;7.40;99.90
26278;DHT22;14000;52.056;8.510;2023-11-21T12:10:33;7.40;99.90
26278;DHT22;14000;52.056;8.510;2023-11-21T12:13:05;7.50;99.90
26278;DHT22;14000;52.056;8.510;2023-11-21T12:15:35;7.50;99.90
26278;DHT22;14000;52.056;8.510;2023-11-21T12:18:01;7.40;99.90
26278;DHT22;14000;52.056;8.510;2023-11-21T12:20:28;7.40;99.90
26278;DHT22;14000;52.056;8.510;2023-11-21T12:22:56;7.30;99.90
26278;DHT22;14000;52.056;8.510;2023-11-21T12:25:26;7.30;99.90
26278;DHT22;14000;52.056;8.510;2023-11-21T12:27:57;7.30;99.90
26278;DHT22;14000;52.056;8.510;2023-11-21T12:30:28;7.20;99.90
26278;DHT22;14000;52.056;8.510;2023-11-21T12:32:57;7.10;99.90
26278;DHT22;14000;52.056;8.510;2023-11-21T12:35:28;7.10;99.90
26278;DHT22;14000;52.056;8.510;2023-11-21T12:37:55;7.10;99.90
26278;DHT22;14000;52.056;8.510;2023-11-21T12:40:21;7.10;99.90
26278;DHT22;14000;52.056;8.510;2023-11-21T12:42:50;7.20;99.90
26278;DHT22;14000;52.056;8.510;2023-11-21T12:47:46;7.20;99.90
26278;DHT22;14000;52.056;8.510;2023-11-21T12:50:13;7.20;99.90
26278;DHT22;14000;52.056;8.510;2023-11-21T12:52:45;7.20;99.90
26278;DHT22;14000;52.056;8.510;2023-11-21T12:55:19;7.30;99.90
26278;DHT22;14000;52.056;8.510;2023-11-21T12:57:48;7.30;99.90
26278;DHT22;14000;52.056;8.510;2023-11-21T13:00:17;7.30;99.90
26278;DHT22;14000;52.056;8.510;2023-11-21T13:02:54;7.40;99.90
26278;DHT22;14000;52.056;8.510;2023-11-21T13:05:30;7.30;99.90
26278;DHT22;14000;52.056;8.510;2023-11-21T13:07:57;7.30;99.90
26278;DHT22;14000;52.056;8.510;2023-11-21T13:10:24;7.30;99.90
26278;DHT22;14000;52.056;8.510;2023-11-21T13:12:51;7.40;99.90
26278;DHT22;14000;52.056;8.510;2023-11-21T13:15:17;7.40;99.90
26278;DHT22;14000;52.056;8.510;2023-11-21T13:17:46;7.40;99.90
26278;DHT22;14000;52.056;8.510;2023-11-21T13:20:12;7.40;99.90
26278;DHT22;14000;52.056;8.510;2023-11-21T13:22:52;7.40;99.90
26278;DHT22;14000;52.056;8.510;2023-11-21T13:25:21;7.40;99.90
26278;DHT22;14000;52.056;8.510;2023-11-21T13:27:47;7.90;99.90
26278;DHT22;14000;52.056;8.510;2023-11-21T13:30:16;7.30;99.90
26278;DHT22;14000;52.056;8.510;2023-11-21T13:32:45;7.40;99.90
26278;DHT22;14000;52.056;8.510;2023-11-21T13:35:12;7.40;99.90
26278;DHT22;14000;52.056;8.510;2023-11-21T13:37:50;7.40;99.90
26278;DHT22;14000;52.056;8.510;2023-11-21T13:40:20;7.50;99.90
26278;DHT22;14000;52.056;8.510;2023-11-21T13:42:48;7.50;99.90
26278;DHT22;14000;52.056;8.510;2023-11-21T13:45:14;7.50;99.90
26278;DHT22;14000;52.056;8.510;2023-11-21T13:47:42;7.50;99.90
26278;DHT22;14000;52.056;8.510;2023-11-21T13:50:08;7.40;99.90
26278;DHT22;14000;52.056;8.510;2023-11-21T13:52:43;7.40;99.90
26278;DHT22;14000;52.056;8.510;2023-11-21T13:55:10;7.40;99.90
26278;DHT22;14000;52.056;8.510;2023-11-21T13:57:41;7.30;99.90
26278;DHT22;14000;52.056;8.510;2023-11-21T14:00:11;7.30;99.90
26278;DHT22;14000;52.056;8.510;2023-11-21T14:02:57;7.30;99.90
26278;DHT22;14000;52.056;8.510;2023-11-21T14:05:26;7.20;99.90
26278;DHT22;14000;52.056;8.510;2023-11-21T14:07:55;7.20;99.90
26278;DHT22;14000;52.056;8.510;2023-11-21T14:10:22;7.20;99.90
26278;DHT22;14000;52.056;8.510;2023-11-21T14:12:50;7.20;99.90
26278;DHT22;14000;52.056;8.510;2023-11-21T14:15:15;7.20;99.90
26278;DHT22;14000;52.056;8.510;2023-11-21T14:17:44;7.10;99.90
26278;DHT22;14000;52.056;8.510;2023-11-21T14:20:10;7.20;99.90
26278;DHT22;14000;52.056;8.510;2023-11-21T14:22:41;7.20;99.90
26278;DHT22;14000;52.056;8.510;2023-11-21T14:25:07;7.20;99.90
26278;DHT22;14000;52.056;8.510;2023-11-21T14:27:33;7.30;99.90
26278;DHT22;14000;52.056;8.510;2023-11-21T14:29:58;7.20;99.90
26278;DHT22;14000;52.056;8.510;2023-11-21T14:32:24;7.20;99.90
26278;DHT22;14000;52.056;8.510;2023-11-21T14:34:51;7.10;99.90
26278;DHT22;14000;52.056;8.510;2023-11-21T14:37:17;7.10;99.90
26278;DHT22;14000;52.056;8.510;2023-11-21T14:39:43;7.10;99.90
26278;DHT22;14000;52.056;8.510;2023-11-21T14:42:13;7.10;99.90
26278;DHT22;14000;52.056;8.510;2023-11-21T14:44:40;7.10;99.90
26278;DHT22;14000;52.056;8.510;2023-11-21T14:47:07;7.00;99.90
26278;DHT22;14000;52.056;8.510;2023-11-21T14:49:43;7.00;99.90
26278;DHT22;14000;52.056;8.510;2023-11-21T14:52:21;7.00;99.90
26278;DHT22;14000;52.056;8.510;2023-11-21T14:55:06;7.10;99.90
26278;DHT22;14000;52.056;8.510;2023-11-21T14:58:04;7.10;99.90
26278;DHT22;14000;52.056;8.510;2023-11-21T15:00:29;7.10;99.90
26278;DHT22;14000;52.056;8.510;2023-11-21T15:03:04;7.00;99.90
26278;DHT22;14000;52.056;8.510;2023-11-21T15:05:30;7.00;99.90
26278;DHT22;14000;52.056;8.510;2023-11-21T15:07:56;6.90;99.90
26278;DHT22;14000;52.056;8.510;2023-11-21T15:10:34;6.90;99.90
26278;DHT22;14000;52.056;8.510;2023-11-21T15:13:20;6.90;99.90
26278;DHT22;14000;52.056;8.510;2023-11-21T15:15:47;6.90;99.90
26278;DHT22;14000;52.056;8.510;2023-11-21T15:18:13;6.90;99.90
26278;DHT22;14000;52.056;8.510;2023-11-21T15:20:42;6.80;99.90
26278;DHT22;14000;52.056;8.510;2023-11-21T15:23:09;6.80;99.90
26278;DHT22;14000;52.056;8.510;2023-11-21T15:25:34;6.90;99.90
26278;DHT22;14000;52.056;8.510;2023-11-21T15:28:01;6.90;99.90
26278;DHT22;14000;52.056;8.510;2023-11-21T15:30:26;6.80;99.90
26278;DHT22;14000;52.056;8.510;2023-11-21T15:32:52;6.70;99.90
26278;DHT22;14000;52.056;8.510;2023-11-21T15:35:20;6.70;99.90
26278;DHT22;14000;52.056;8.510;2023-11-21T15:37:46;6.70;99.90
26278;DHT22;14000;52.056;8.510;2023-11-21T15:40:12;6.70;99.90
26278;DHT22;14000;52.056;8.510;2023-11-21T15:42:40;6.70;99.90
26278;DHT22;14000;52.056;8.510;2023-11-21T15:45:06;6.70;99.90
26278;DHT22;14000;52.056;8.510;2023-11-21T15:47:33;6.70;99.90
26278;DHT22;14000;52.056;8.510;2023-11-21T15:49:59;6.60;99.90
26278;DHT22;14000;52.056;8.510;2023-11-21T15:52:25;6.60;99.90
26278;DHT22;14000;52.056;8.510;2023-11-21T15:54:51;6.70;99.90
26278;DHT22;14000;52.056;8.510;2023-11-21T15:57:16;6.60;99.90
26278;DHT22;14000;52.056;8.510;2023-11-21T15:59:47;6.60;99.90
26278;DHT22;14000;52.056;8.510;2023-11-21T16:02:13;6.60;99.90